createdAt,value
2018-12-04T00:00:05.108Z,997.89
2018-12-04T00:01:05.167Z,997.90
2018-12-04T00:02:05.223Z,997.88
2018-12-04T00:03:05.282Z,997.88
2018-12-04T00:04:05.338Z,997.91
2018-12-04T00:05:05.398Z,997.88
2018-12-04T00:06:05.457Z,997.91
2018-12-04T00:07:05.512Z,997.89
2018-12-04T00:08:05.568Z,997.90
2018-12-04T00:09:05.626Z,997.92
2018-12-04T00:10:05.685Z,997.94
2018-12-04T00:11:05.743Z,998.03
2018-12-04T00:12:05.803Z,997.99
2018-12-04T00:13:05.857Z,998.09
2018-12-04T00:14:05.916Z,998.12
2018-12-04T00:15:05.974Z,998.14
2018-12-04T00:16:06.031Z,998.18
2018-12-04T00:17:06.091Z,998.28
2018-12-04T00:18:06.155Z,998.25
2018-12-04T00:19:06.205Z,998.30
2018-12-04T00:20:06.313Z,998.33
2018-12-04T00:21:06.319Z,998.32
2018-12-04T00:22:06.377Z,998.31
2018-12-04T00:23:06.435Z,998.36
2018-12-04T00:24:06.492Z,998.32
2018-12-04T00:25:06.551Z,998.35
2018-12-04T00:26:06.609Z,998.39
2018-12-04T00:27:06.666Z,998.38
2018-12-04T00:28:06.724Z,998.42
2018-12-04T00:29:06.782Z,998.41
2018-12-04T00:30:06.838Z,998.44
2018-12-04T00:31:06.898Z,998.44
2018-12-04T00:32:06.954Z,998.42
2018-12-04T00:33:07.013Z,998.44
2018-12-04T00:34:07.069Z,998.42
2018-12-04T00:35:07.127Z,998.44
2018-12-04T00:36:07.184Z,998.47
2018-12-04T00:37:07.243Z,998.46
2018-12-04T00:38:07.302Z,998.46
2018-12-04T00:39:07.359Z,998.49
2018-12-04T00:40:07.417Z,998.50
2018-12-04T00:41:07.474Z,998.55
2018-12-04T00:42:07.530Z,998.56
2018-12-04T00:43:07.587Z,998.56
2018-12-04T00:44:07.648Z,998.55
2018-12-04T00:45:07.705Z,998.61
2018-12-04T00:46:07.758Z,998.56
2018-12-04T00:47:07.816Z,998.58
2018-12-04T00:48:07.873Z,998.56
2018-12-04T00:49:07.931Z,998.60
2018-12-04T00:50:07.989Z,998.66
2018-12-04T00:51:08.046Z,998.68
2018-12-04T00:52:08.103Z,998.71
2018-12-04T00:53:08.159Z,998.74
2018-12-04T00:54:08.222Z,998.70
2018-12-04T00:55:08.277Z,998.81
2018-12-04T00:56:08.332Z,998.84
2018-12-04T00:57:08.388Z,998.81
2018-12-04T00:58:08.445Z,998.82
2018-12-04T00:59:08.504Z,998.82
2018-12-04T01:00:08.560Z,998.82
2018-12-04T01:01:08.618Z,998.83
2018-12-04T01:02:08.675Z,998.91
2018-12-04T01:03:08.737Z,998.89
2018-12-04T01:04:08.789Z,998.94
2018-12-04T01:05:08.846Z,999.00
2018-12-04T01:06:08.904Z,999.00
2018-12-04T01:07:08.960Z,999.06
2018-12-04T01:08:09.017Z,999.07
2018-12-04T01:09:09.074Z,999.10
2018-12-04T01:10:09.131Z,999.05
2018-12-04T01:11:09.189Z,999.11
2018-12-04T01:12:09.246Z,999.14
2018-12-04T01:13:09.303Z,999.12
2018-12-04T01:14:09.360Z,999.19
2018-12-04T01:15:09.416Z,999.23
2018-12-04T01:16:09.474Z,999.29
2018-12-04T01:17:09.531Z,999.32
2018-12-04T01:18:09.588Z,999.34
2018-12-04T01:19:09.646Z,999.37
2018-12-04T01:20:09.703Z,999.37
2018-12-04T01:21:09.758Z,999.40
2018-12-04T01:22:09.816Z,999.41
2018-12-04T01:23:09.877Z,999.44
2018-12-04T01:24:09.929Z,999.49
2018-12-04T01:25:09.989Z,999.53
2018-12-04T01:26:10.044Z,999.53
2018-12-04T01:27:10.100Z,999.55
2018-12-04T01:28:10.157Z,999.56
2018-12-04T01:29:10.214Z,999.58
2018-12-04T01:30:10.280Z,999.57
2018-12-04T01:31:10.329Z,999.60
2018-12-04T01:32:10.385Z,999.58
2018-12-04T01:33:10.443Z,999.60
2018-12-04T01:34:10.503Z,999.67
2018-12-04T01:35:10.556Z,999.64
2018-12-04T01:36:10.614Z,999.68
2018-12-04T01:37:10.669Z,999.73
2018-12-04T01:38:10.778Z,999.75
2018-12-04T01:39:10.785Z,999.82
2018-12-04T01:40:10.840Z,999.79
2018-12-04T01:41:10.898Z,999.82
2018-12-04T01:42:10.956Z,999.81
2018-12-04T01:43:11.010Z,999.82
2018-12-04T01:44:11.067Z,999.83
2018-12-04T01:45:11.124Z,999.87
2018-12-04T01:46:11.183Z,999.88
2018-12-04T01:47:11.239Z,999.86
2018-12-04T01:48:11.308Z,999.86
2018-12-04T01:49:11.353Z,999.88
2018-12-04T01:50:11.410Z,999.93
2018-12-04T01:51:11.466Z,999.94
2018-12-04T01:52:11.522Z,1000.05
2018-12-04T01:53:11.582Z,1000.10
2018-12-04T01:54:11.637Z,1000.14
2018-12-04T01:55:11.694Z,1000.22
2018-12-04T01:56:11.750Z,1000.25
2018-12-04T01:57:11.806Z,1000.25
2018-12-04T01:58:11.899Z,1000.24
2018-12-04T01:59:11.921Z,1000.24
2018-12-04T02:00:11.977Z,1000.26
2018-12-04T02:01:12.033Z,1000.27
2018-12-04T02:02:12.091Z,1000.31
2018-12-04T02:03:12.154Z,1000.30
2018-12-04T02:04:12.203Z,1000.35
2018-12-04T02:05:12.262Z,1000.40
2018-12-04T02:06:12.323Z,1000.42
2018-12-04T02:07:12.375Z,1000.40
2018-12-04T02:08:12.431Z,1000.42
2018-12-04T02:09:12.488Z,1000.43
2018-12-04T02:10:12.544Z,1000.39
2018-12-04T02:11:12.603Z,1000.44
2018-12-04T02:12:12.661Z,1000.45
2018-12-04T02:13:12.715Z,1000.49
2018-12-04T02:14:12.773Z,1000.49
2018-12-04T02:15:12.830Z,1000.53
2018-12-04T02:16:12.884Z,1000.56
2018-12-04T02:17:12.943Z,1000.56
2018-12-04T02:18:12.998Z,1000.60
2018-12-04T02:19:13.056Z,1000.62
2018-12-04T02:20:13.124Z,1000.57
2018-12-04T02:21:13.168Z,1000.63
2018-12-04T02:22:13.226Z,1000.62
2018-12-04T02:23:13.283Z,1000.67
2018-12-04T02:24:13.338Z,1000.69
2018-12-04T02:25:13.397Z,1000.69
2018-12-04T02:26:13.453Z,1000.69
2018-12-04T02:27:13.509Z,1000.73
2018-12-04T02:28:13.565Z,1000.74
2018-12-04T02:29:13.622Z,1000.75
2018-12-04T02:30:13.680Z,1000.78
2018-12-04T02:31:13.736Z,1000.79
2018-12-04T02:32:13.795Z,1000.80
2018-12-04T02:33:13.848Z,1000.90
2018-12-04T02:34:13.909Z,1000.82
2018-12-04T02:35:13.964Z,1000.90
2018-12-04T02:36:14.019Z,1000.86
2018-12-04T02:37:14.076Z,1000.83
2018-12-04T02:38:14.132Z,1000.88
2018-12-04T02:39:14.193Z,1000.85
2018-12-04T02:40:14.254Z,1000.82
2018-12-04T02:41:14.312Z,1000.85
2018-12-04T02:42:14.716Z,1000.87
2018-12-04T02:43:14.416Z,1000.88
2018-12-04T02:44:14.472Z,1000.90
2018-12-04T02:45:14.530Z,1000.93
2018-12-04T02:46:14.586Z,1000.94
2018-12-04T02:47:14.643Z,1000.99
2018-12-04T02:48:14.698Z,1000.99
2018-12-04T02:49:14.758Z,1001.03
2018-12-04T02:50:14.813Z,1001.04
2018-12-04T02:51:14.870Z,1001.07
2018-12-04T02:52:14.926Z,1001.08
2018-12-04T02:53:14.984Z,1001.10
2018-12-04T02:54:15.039Z,1001.14
2018-12-04T02:55:15.097Z,1001.16
2018-12-04T02:56:15.154Z,1001.15
2018-12-04T02:57:15.210Z,1001.19
2018-12-04T02:58:15.267Z,1001.24
2018-12-04T02:59:15.325Z,1001.27
2018-12-04T03:00:15.381Z,1001.24
2018-12-04T03:01:15.438Z,1001.24
2018-12-04T03:02:15.493Z,1001.24
2018-12-04T03:03:15.552Z,1001.27
2018-12-04T03:04:15.605Z,1001.23
2018-12-04T03:05:15.663Z,1001.24
2018-12-04T03:06:15.719Z,1001.26
2018-12-04T03:07:15.778Z,1001.30
2018-12-04T03:08:15.836Z,1001.35
2018-12-04T03:09:15.889Z,1001.38
2018-12-04T03:10:15.951Z,1001.40
2018-12-04T03:11:16.003Z,1001.39
2018-12-04T03:12:16.059Z,1001.41
2018-12-04T03:13:16.118Z,1001.45
2018-12-04T03:14:16.173Z,1001.50
2018-12-04T03:15:16.228Z,1001.56
2018-12-04T03:16:16.288Z,1001.60
2018-12-04T03:17:16.343Z,1001.61
2018-12-04T03:18:16.398Z,1001.60
2018-12-04T03:19:16.455Z,1001.60
2018-12-04T03:20:16.509Z,1001.67
2018-12-04T03:21:16.569Z,1001.68
2018-12-04T03:22:16.632Z,1001.66
2018-12-04T03:23:16.680Z,1001.65
2018-12-04T03:24:16.738Z,1001.69
2018-12-04T03:25:16.794Z,1001.67
2018-12-04T03:26:16.850Z,1001.72
2018-12-04T03:27:16.906Z,1001.66
2018-12-04T03:28:16.962Z,1001.70
2018-12-04T03:29:17.019Z,1001.72
2018-12-04T03:30:17.076Z,1001.73
2018-12-04T03:31:17.142Z,1001.74
2018-12-04T03:32:17.188Z,1001.78
2018-12-04T03:33:17.245Z,1001.81
2018-12-04T03:34:17.301Z,1001.80
2018-12-04T03:35:17.359Z,1001.82
2018-12-04T03:36:17.413Z,1001.86
2018-12-04T03:37:17.469Z,1001.88
2018-12-04T03:38:17.526Z,1001.99
2018-12-04T03:39:17.584Z,1001.94
2018-12-04T03:40:17.639Z,1002.06
2018-12-04T03:41:17.696Z,1001.98
2018-12-04T03:42:17.752Z,1002.04
2018-12-04T03:43:17.808Z,1002.08
2018-12-04T03:44:17.863Z,1002.06
2018-12-04T03:45:17.921Z,1002.10
2018-12-04T03:46:17.977Z,1002.15
2018-12-04T03:47:18.034Z,1002.16
2018-12-04T03:48:18.089Z,1002.23
2018-12-04T03:49:18.146Z,1002.26
2018-12-04T03:50:18.211Z,1002.24
2018-12-04T03:51:18.259Z,1002.27
2018-12-04T03:52:18.319Z,1002.30
2018-12-04T03:53:18.371Z,1002.37
2018-12-04T03:54:18.428Z,1002.35
2018-12-04T03:55:18.484Z,1002.39
2018-12-04T03:56:18.538Z,1002.41
2018-12-04T03:57:18.596Z,1002.44
2018-12-04T03:58:18.655Z,1002.44
2018-12-04T03:59:18.713Z,1002.45
2018-12-04T04:00:18.765Z,1002.47
2018-12-04T04:01:18.821Z,1002.49
2018-12-04T04:02:18.881Z,1002.48
2018-12-04T04:03:18.934Z,1002.57
2018-12-04T04:04:18.992Z,1002.61
2018-12-04T04:05:19.046Z,1002.62
2018-12-04T04:06:19.103Z,1002.64
2018-12-04T04:07:19.160Z,1002.64
2018-12-04T04:08:19.215Z,1002.65
2018-12-04T04:09:19.271Z,1002.68
2018-12-04T04:10:19.328Z,1002.64
2018-12-04T04:11:19.384Z,1002.60
2018-12-04T04:12:19.441Z,1002.63
2018-12-04T04:13:19.498Z,1002.62
2018-12-04T04:14:19.555Z,1002.63
2018-12-04T04:15:19.609Z,1002.64
2018-12-04T04:16:19.668Z,1002.66
2018-12-04T04:17:19.723Z,1002.64
2018-12-04T04:18:19.779Z,1002.67
2018-12-04T04:19:19.848Z,1002.70
2018-12-04T04:20:19.892Z,1002.74
2018-12-04T04:21:19.948Z,1002.82
2018-12-04T04:22:20.004Z,1002.90
2018-12-04T04:23:20.063Z,1002.97
2018-12-04T04:24:20.118Z,1003.03
2018-12-04T04:25:20.172Z,1003.10
2018-12-04T04:26:20.229Z,1003.11
2018-12-04T04:27:20.287Z,1003.11
2018-12-04T04:28:20.343Z,1003.14
2018-12-04T04:29:20.401Z,1003.20
2018-12-04T04:30:20.462Z,1003.20
2018-12-04T04:31:20.514Z,1003.23
2018-12-04T04:32:20.571Z,1003.24
2018-12-04T04:33:20.626Z,1003.27
2018-12-04T04:34:20.693Z,1003.29
2018-12-04T04:35:20.740Z,1003.30
2018-12-04T04:36:20.795Z,1003.35
2018-12-04T04:37:20.853Z,1003.41
2018-12-04T04:38:20.909Z,1003.39
2018-12-04T04:39:20.969Z,1003.44
2018-12-04T04:40:21.026Z,1003.45
2018-12-04T04:41:21.079Z,1003.47
2018-12-04T04:42:21.138Z,1003.47
2018-12-04T04:43:21.191Z,1003.47
2018-12-04T04:44:21.248Z,1003.49
2018-12-04T04:45:21.305Z,1003.51
2018-12-04T04:46:21.363Z,1003.54
2018-12-04T04:47:21.423Z,1003.50
2018-12-04T04:48:21.475Z,1003.53
2018-12-04T04:49:21.532Z,1003.51
2018-12-04T04:50:21.589Z,1003.55
2018-12-04T04:51:21.648Z,1003.59
2018-12-04T04:52:21.706Z,1003.63
2018-12-04T04:53:21.759Z,1003.66
2018-12-04T04:54:21.816Z,1003.67
2018-12-04T04:55:21.872Z,1003.71
2018-12-04T04:56:21.929Z,1003.73
2018-12-04T04:57:21.986Z,1003.73
2018-12-04T04:58:22.043Z,1003.74
2018-12-04T04:59:22.100Z,1003.70
2018-12-04T05:00:22.159Z,1003.65
2018-12-04T05:01:22.213Z,1003.65
2018-12-04T05:02:22.274Z,1003.65
2018-12-04T05:03:22.330Z,1003.68
2018-12-04T05:04:22.383Z,1003.67
2018-12-04T05:05:22.446Z,1003.69
2018-12-04T05:06:22.496Z,1003.77
2018-12-04T05:07:22.566Z,1003.78
2018-12-04T05:08:22.610Z,1003.84
2018-12-04T05:09:22.670Z,1003.84
2018-12-04T05:10:22.726Z,1003.83
2018-12-04T05:11:22.781Z,1003.84
2018-12-04T05:12:22.837Z,1003.85
2018-12-04T05:13:23.401Z,1003.84
2018-12-04T05:14:22.971Z,1003.87
2018-12-04T05:15:23.008Z,1003.89
2018-12-04T05:16:23.063Z,1003.92
2018-12-04T05:17:23.120Z,1003.92
2018-12-04T05:18:23.197Z,1003.95
2018-12-04T05:19:23.235Z,1003.94
2018-12-04T05:20:23.312Z,1003.98
2018-12-04T05:21:23.348Z,1004.02
2018-12-04T05:22:23.403Z,1004.01
2018-12-04T05:23:23.460Z,1004.02
2018-12-04T05:24:23.516Z,1004.06
2018-12-04T05:25:23.574Z,1004.05
2018-12-04T05:26:23.631Z,1004.03
2018-12-04T05:27:23.691Z,1004.07
2018-12-04T05:28:23.742Z,1004.08
2018-12-04T05:29:23.800Z,1004.14
2018-12-04T05:30:23.857Z,1004.20
2018-12-04T05:31:23.914Z,1004.24
2018-12-04T05:32:23.969Z,1004.25
2018-12-04T05:33:24.050Z,1004.28
2018-12-04T05:34:24.082Z,1004.30
2018-12-04T05:35:24.142Z,1004.36
2018-12-04T05:36:24.195Z,1004.37
2018-12-04T05:37:24.251Z,1004.39
2018-12-04T05:38:24.309Z,1004.42
2018-12-04T05:39:24.366Z,1004.45
2018-12-04T05:40:24.422Z,1004.54
2018-12-04T05:41:24.478Z,1004.61
2018-12-04T05:42:24.536Z,1004.64
2018-12-04T05:43:24.592Z,1004.62
2018-12-04T05:44:24.647Z,1004.66
2018-12-04T05:45:24.706Z,1004.65
2018-12-04T05:46:24.761Z,1004.64
2018-12-04T05:47:24.817Z,1004.61
2018-12-04T05:48:24.873Z,1004.60
2018-12-04T05:49:24.936Z,1004.66
2018-12-04T05:50:24.986Z,1004.67
2018-12-04T05:51:25.046Z,1004.70
2018-12-04T05:52:25.099Z,1004.70
2018-12-04T05:53:25.155Z,1004.75
2018-12-04T05:54:25.218Z,1004.72
2018-12-04T05:55:25.269Z,1004.75
2018-12-04T05:56:25.326Z,1004.74
2018-12-04T05:57:25.382Z,1004.76
2018-12-04T05:58:25.437Z,1004.80
2018-12-04T05:59:25.495Z,1004.78
2018-12-04T06:00:25.552Z,1004.86
2018-12-04T06:01:25.606Z,1004.84
2018-12-04T06:02:25.663Z,1004.87
2018-12-04T06:03:25.719Z,1004.87
2018-12-04T06:04:25.775Z,1004.90
2018-12-04T06:05:25.834Z,1004.95
2018-12-04T06:06:25.889Z,1004.96
2018-12-04T06:07:25.944Z,1004.99
2018-12-04T06:08:26.000Z,1004.97
2018-12-04T06:09:26.058Z,1005.02
2018-12-04T06:10:26.114Z,1005.03
2018-12-04T06:11:26.639Z,1005.05
2018-12-04T06:12:26.226Z,1005.08
2018-12-04T06:13:26.294Z,1005.09
2018-12-04T06:14:26.339Z,1005.08
2018-12-04T06:15:26.397Z,1005.14
2018-12-04T06:16:26.451Z,1005.16
2018-12-04T06:17:26.508Z,1005.16
2018-12-04T06:18:26.566Z,1005.22
2018-12-04T06:19:26.620Z,1005.23
2018-12-04T06:20:26.675Z,1005.18
2018-12-04T06:21:26.737Z,1005.26
2018-12-04T06:22:26.818Z,1005.28
2018-12-04T06:23:26.845Z,1005.33
2018-12-04T06:24:26.902Z,1005.43
2018-12-04T06:25:26.969Z,1005.45
2018-12-04T06:26:27.014Z,1005.48
2018-12-04T06:27:27.071Z,1005.52
2018-12-04T06:28:27.127Z,1005.55
2018-12-04T06:29:27.182Z,1005.57
2018-12-04T06:30:27.239Z,1005.63
2018-12-04T06:31:27.296Z,1005.61
2018-12-04T06:32:27.351Z,1005.61
2018-12-04T06:33:27.408Z,1005.62
2018-12-04T06:34:27.470Z,1005.60
2018-12-04T06:35:27.593Z,1005.64
2018-12-04T06:36:28.265Z,1005.65
2018-12-04T06:37:28.338Z,1005.65
2018-12-04T06:38:27.688Z,1005.66
2018-12-04T06:39:27.747Z,1005.68
2018-12-04T06:40:27.818Z,1005.69
2018-12-04T06:41:27.860Z,1005.70
2018-12-04T06:42:27.915Z,1005.71
2018-12-04T06:43:27.970Z,1005.77
2018-12-04T06:44:28.026Z,1005.77
2018-12-04T06:45:28.082Z,1005.81
2018-12-04T06:46:28.138Z,1005.84
2018-12-04T06:47:28.195Z,1005.87
2018-12-04T06:48:28.251Z,1005.89
2018-12-04T06:49:28.310Z,1005.92
2018-12-04T06:50:28.363Z,1005.92
2018-12-04T06:51:28.419Z,1005.96
2018-12-04T06:52:28.476Z,1005.99
2018-12-04T06:53:28.532Z,1006.02
2018-12-04T06:54:28.589Z,1006.07
2018-12-04T06:55:28.646Z,1006.09
2018-12-04T06:56:28.701Z,1006.11
2018-12-04T06:57:28.757Z,1006.09
2018-12-04T06:58:28.838Z,1006.15
2018-12-04T06:59:28.871Z,1006.14
2018-12-04T07:00:28.928Z,1006.16
2018-12-04T07:01:28.982Z,1006.23
2018-12-04T07:02:29.040Z,1006.23
2018-12-04T07:03:29.097Z,1006.23
2018-12-04T07:04:29.153Z,1006.24
2018-12-04T07:05:29.210Z,1006.30
2018-12-04T07:06:29.266Z,1006.29
2018-12-04T07:07:29.327Z,1006.32
2018-12-04T07:08:29.378Z,1006.30
2018-12-04T07:09:29.435Z,1006.39
2018-12-04T07:10:29.492Z,1006.41
2018-12-04T07:11:29.549Z,1006.43
2018-12-04T07:12:29.604Z,1006.45
2018-12-04T07:13:29.662Z,1006.49
2018-12-04T07:14:29.719Z,1006.49
2018-12-04T07:15:29.782Z,1006.54
2018-12-04T07:16:29.831Z,1006.57
2018-12-04T07:17:29.887Z,1006.58
2018-12-04T07:18:29.947Z,1006.61
2018-12-04T07:19:30.002Z,1006.63
2018-12-04T07:20:30.058Z,1006.68
2018-12-04T07:21:30.115Z,1006.68
2018-12-04T07:22:30.172Z,1006.71
2018-12-04T07:23:30.234Z,1006.70
2018-12-04T07:24:30.286Z,1006.74
2018-12-04T07:25:30.342Z,1006.77
2018-12-04T07:26:30.397Z,1006.82
2018-12-04T07:27:30.455Z,1006.88
2018-12-04T07:28:30.512Z,1006.87
2018-12-04T07:29:30.568Z,1006.88
2018-12-04T07:30:30.626Z,1006.90
2018-12-04T07:31:30.683Z,1006.94
2018-12-04T07:32:30.738Z,1006.99
2018-12-04T07:33:30.795Z,1007.07
2018-12-04T07:34:30.857Z,1007.10
2018-12-04T07:35:30.909Z,1007.12
2018-12-04T07:36:30.966Z,1007.21
2018-12-04T07:37:31.023Z,1007.20
2018-12-04T07:38:31.080Z,1007.26
2018-12-04T07:39:31.139Z,1007.21
2018-12-04T07:40:31.192Z,1007.28
2018-12-04T07:41:31.248Z,1007.29
2018-12-04T07:42:31.306Z,1007.30
2018-12-04T07:43:31.363Z,1007.34
2018-12-04T07:44:31.420Z,1007.34
2018-12-04T07:45:31.476Z,1007.40
2018-12-04T07:46:31.532Z,1007.40
2018-12-04T07:47:31.590Z,1007.44
2018-12-04T07:48:31.646Z,1007.45
2018-12-04T07:49:31.702Z,1007.45
2018-12-04T07:50:31.760Z,1007.48
2018-12-04T07:51:32.840Z,1007.53
2018-12-04T07:52:31.872Z,1007.51
2018-12-04T07:53:31.930Z,1007.56
2018-12-04T07:54:31.992Z,1007.63
2018-12-04T07:55:32.044Z,1007.64
2018-12-04T07:56:32.100Z,1007.65
2018-12-04T07:57:32.155Z,1007.65
2018-12-04T07:58:32.220Z,1007.69
2018-12-04T07:59:32.271Z,1007.72
2018-12-04T08:00:32.327Z,1007.72
2018-12-04T08:01:32.401Z,1007.70
2018-12-04T08:02:32.440Z,1007.73
2018-12-04T08:03:32.498Z,1007.76
2018-12-04T08:04:32.553Z,1007.85
2018-12-04T08:05:32.610Z,1007.85
2018-12-04T08:06:32.700Z,1007.89
2018-12-04T08:07:32.724Z,1007.95
2018-12-04T08:08:32.780Z,1007.96
2018-12-04T08:09:32.836Z,1007.97
2018-12-04T08:10:32.894Z,1007.94
2018-12-04T08:11:33.763Z,1007.97
2018-12-04T08:12:33.006Z,1008.04
2018-12-04T08:13:33.062Z,1008.04
2018-12-04T08:14:33.123Z,1008.09
2018-12-04T08:15:33.177Z,1008.15
2018-12-04T08:16:33.270Z,1008.15
2018-12-04T08:17:33.289Z,1008.19
2018-12-04T08:18:33.347Z,1008.22
2018-12-04T08:19:33.402Z,1008.20
2018-12-04T08:20:33.458Z,1008.28
2018-12-04T08:21:33.515Z,1008.30
2018-12-04T08:22:33.571Z,1008.33
2018-12-04T08:23:33.629Z,1008.37
2018-12-04T08:24:34.584Z,1008.40
2018-12-04T08:25:33.742Z,1008.42
2018-12-04T08:26:33.799Z,1008.41
2018-12-04T08:27:33.856Z,1008.41
2018-12-04T08:28:33.910Z,1008.41
2018-12-04T08:29:33.966Z,1008.43
2018-12-04T08:30:34.025Z,1008.43
2018-12-04T08:31:34.081Z,1008.43
2018-12-04T08:32:34.139Z,1008.46
2018-12-04T08:33:34.196Z,1008.46
2018-12-04T08:34:34.255Z,1008.45
2018-12-04T08:35:34.308Z,1008.47
2018-12-04T08:36:34.366Z,1008.51
2018-12-04T08:37:34.421Z,1008.51
2018-12-04T08:38:34.481Z,1008.50
2018-12-04T08:39:34.535Z,1008.54
2018-12-04T08:40:34.593Z,1008.55
2018-12-04T08:41:34.648Z,1008.59
2018-12-04T08:42:34.705Z,1008.65
2018-12-04T08:43:34.762Z,1008.68
2018-12-04T08:44:34.818Z,1008.67
2018-12-04T08:45:34.876Z,1008.71
2018-12-04T08:46:34.933Z,1008.72
2018-12-04T08:47:34.989Z,1008.70
2018-12-04T08:48:35.048Z,1008.73
2018-12-04T08:49:35.102Z,1008.73
2018-12-04T08:50:35.160Z,1008.71
2018-12-04T08:51:35.217Z,1008.74
2018-12-04T08:52:35.273Z,1008.73
2018-12-04T08:53:35.331Z,1008.76
2018-12-04T08:54:35.388Z,1008.78
2018-12-04T08:55:35.445Z,1008.83
2018-12-04T08:56:35.835Z,1008.83
2018-12-04T08:57:35.559Z,1008.86
2018-12-04T08:58:35.617Z,1008.88
2018-12-04T08:59:35.674Z,1008.91
2018-12-04T09:00:35.730Z,1008.91
2018-12-04T09:01:35.788Z,1008.95
2018-12-04T09:02:35.846Z,1009.01
2018-12-04T09:03:35.901Z,1009.06
2018-12-04T09:04:35.957Z,1009.07
2018-12-04T09:05:36.015Z,1009.08
2018-12-04T09:06:36.074Z,1009.09
2018-12-04T09:07:36.129Z,1009.09
2018-12-04T09:08:36.186Z,1009.14
2018-12-04T09:09:36.243Z,1009.17
2018-12-04T09:10:36.302Z,1009.18
2018-12-04T09:11:36.358Z,1009.20
2018-12-04T09:12:36.414Z,1009.23
2018-12-04T09:13:36.473Z,1009.24
2018-12-04T09:14:38.313Z,1009.25
2018-12-04T09:15:37.107Z,1009.33
2018-12-04T09:16:36.643Z,1009.37
2018-12-04T09:17:36.698Z,1009.44
2018-12-04T09:18:37.352Z,1009.41
2018-12-04T09:19:36.828Z,1009.41
2018-12-04T09:20:36.868Z,1009.46
2018-12-04T09:21:36.935Z,1009.48
2018-12-04T09:22:37.009Z,1009.52
2018-12-04T09:23:37.064Z,1009.61
2018-12-04T09:24:37.115Z,1009.64
2018-12-04T09:25:37.194Z,1009.64
2018-12-04T09:26:37.225Z,1009.68
2018-12-04T09:27:37.283Z,1009.70
2018-12-04T09:28:37.348Z,1009.78
2018-12-04T09:29:37.391Z,1009.81
2018-12-04T09:30:37.439Z,1009.82
2018-12-04T09:31:37.495Z,1009.84
2018-12-04T09:32:37.552Z,1009.86
2018-12-04T09:33:37.659Z,1009.90
2018-12-04T09:34:37.666Z,1009.89
2018-12-04T09:35:37.722Z,1009.88
2018-12-04T09:36:37.780Z,1009.93
2018-12-04T09:37:37.835Z,1009.94
2018-12-04T09:38:37.895Z,1009.98
2018-12-04T09:39:37.951Z,1010.00
2018-12-04T09:40:38.007Z,1009.99
2018-12-04T09:41:38.589Z,1009.94
2018-12-04T09:42:38.124Z,1009.95
2018-12-04T09:43:38.179Z,1009.95
2018-12-04T09:44:38.236Z,1009.97
2018-12-04T09:45:38.292Z,1009.96
2018-12-04T09:46:38.356Z,1009.99
2018-12-04T09:47:38.407Z,1010.03
2018-12-04T09:48:38.466Z,1010.09
2018-12-04T09:49:38.520Z,1010.08
2018-12-04T09:50:38.604Z,1010.10
2018-12-04T09:51:38.637Z,1010.09
2018-12-04T09:52:38.692Z,1010.16
2018-12-04T09:53:38.751Z,1010.16
2018-12-04T09:54:38.808Z,1010.19
2018-12-04T09:55:38.865Z,1010.17
2018-12-04T09:56:38.925Z,1010.20
2018-12-04T09:57:38.998Z,1010.29
2018-12-04T09:58:39.038Z,1010.25
2018-12-04T09:59:39.610Z,1010.26
2018-12-04T10:00:39.151Z,1010.26
2018-12-04T10:01:39.210Z,1010.26
2018-12-04T10:02:39.754Z,1010.23
2018-12-04T10:03:39.326Z,1010.23
2018-12-04T10:04:40.597Z,1010.29
2018-12-04T10:05:39.440Z,1010.26
2018-12-04T10:06:39.503Z,1010.29
2018-12-04T10:07:39.556Z,1010.28
2018-12-04T10:08:39.614Z,1010.29
2018-12-04T10:09:39.670Z,1010.34
2018-12-04T10:10:39.729Z,1010.36
2018-12-04T10:11:39.787Z,1010.31
2018-12-04T10:12:39.844Z,1010.34
2018-12-04T10:13:39.902Z,1010.39
2018-12-04T10:14:39.959Z,1010.39
2018-12-04T10:15:40.017Z,1010.37
2018-12-04T10:16:41.265Z,1010.40
2018-12-04T10:17:40.132Z,1010.40
2018-12-04T10:18:40.215Z,1010.39
2018-12-04T10:19:40.250Z,1010.40
2018-12-04T10:20:40.306Z,1010.44
2018-12-04T10:21:40.364Z,1010.41
2018-12-04T10:22:40.421Z,1010.43
2018-12-04T10:23:40.576Z,1010.44
2018-12-04T10:24:40.537Z,1010.45
2018-12-04T10:25:40.595Z,1010.44
2018-12-04T10:26:40.654Z,1010.46
2018-12-04T10:27:40.710Z,1010.50
2018-12-04T10:28:40.768Z,1010.53
2018-12-04T10:29:40.826Z,1010.54
2018-12-04T10:30:40.888Z,1010.60
2018-12-04T10:31:40.941Z,1010.60
2018-12-04T10:32:40.997Z,1010.60
2018-12-04T10:33:41.057Z,1010.65
2018-12-04T10:34:41.113Z,1010.65
2018-12-04T10:35:41.179Z,1010.69
2018-12-04T10:36:41.228Z,1010.67
2018-12-04T10:37:41.286Z,1010.68
2018-12-04T10:38:41.931Z,1010.67
2018-12-04T10:39:42.063Z,1010.67
2018-12-04T10:40:41.460Z,1010.72
2018-12-04T10:41:41.515Z,1010.69
2018-12-04T10:42:41.574Z,1010.72
2018-12-04T10:43:41.630Z,1010.73
2018-12-04T10:44:41.688Z,1010.81
2018-12-04T10:45:41.749Z,1010.82
2018-12-04T10:46:41.803Z,1010.84
2018-12-04T10:47:42.079Z,1010.84
2018-12-04T10:48:41.937Z,1010.84
2018-12-04T10:49:41.975Z,1010.82
2018-12-04T10:50:42.031Z,1010.84
2018-12-04T10:51:42.092Z,1010.83
2018-12-04T10:52:42.146Z,1010.81
2018-12-04T10:53:42.203Z,1010.79
2018-12-04T10:54:42.262Z,1010.77
2018-12-04T10:55:42.317Z,1010.81
2018-12-04T10:56:42.375Z,1010.80
2018-12-04T10:57:42.431Z,1010.82
2018-12-04T10:58:42.489Z,1010.79
2018-12-04T10:59:42.547Z,1010.77
2018-12-04T11:00:42.604Z,1010.82
2018-12-04T11:01:42.661Z,1010.81
2018-12-04T11:02:42.719Z,1010.76
2018-12-04T11:03:42.776Z,1010.77
2018-12-04T11:04:42.832Z,1010.71
2018-12-04T11:05:42.889Z,1010.72
2018-12-04T11:06:42.947Z,1010.65
2018-12-04T11:07:43.705Z,1010.71
2018-12-04T11:08:43.734Z,1010.73
2018-12-04T11:09:43.119Z,1010.74
2018-12-04T11:10:43.175Z,1010.76
2018-12-04T11:11:43.234Z,1010.76
2018-12-04T11:12:43.306Z,1010.80
2018-12-04T11:13:43.346Z,1010.81
2018-12-04T11:14:43.402Z,1010.86
2018-12-04T11:15:43.460Z,1010.81
2018-12-04T11:16:43.516Z,1010.87
2018-12-04T11:17:43.577Z,1010.86
2018-12-04T11:18:43.631Z,1010.86
2018-12-04T11:19:43.690Z,1010.88
2018-12-04T11:20:43.746Z,1010.85
2018-12-04T11:21:43.802Z,1010.89
2018-12-04T11:22:43.858Z,1010.91
2018-12-04T11:23:43.917Z,1010.90
2018-12-04T11:24:43.975Z,1010.92
2018-12-04T11:25:44.028Z,1010.91
2018-12-04T11:26:44.770Z,1010.90
2018-12-04T11:27:44.144Z,1010.92
2018-12-04T11:28:44.201Z,1010.88
2018-12-04T11:29:44.256Z,1010.89
2018-12-04T11:30:44.314Z,1010.93
2018-12-04T11:31:44.371Z,1010.95
2018-12-04T11:32:44.427Z,1010.91
2018-12-04T11:33:44.485Z,1010.92
2018-12-04T11:34:44.542Z,1010.94
2018-12-04T11:35:44.598Z,1010.94
2018-12-04T11:36:44.654Z,1010.99
2018-12-04T11:37:44.741Z,1011.00
2018-12-04T11:38:44.769Z,1011.01
2018-12-04T11:39:44.827Z,1011.05
2018-12-04T11:40:44.882Z,1011.13
2018-12-04T11:41:44.938Z,1011.20
2018-12-04T11:42:44.998Z,1011.26
2018-12-04T11:43:45.052Z,1011.24
2018-12-04T11:44:45.109Z,1011.27
2018-12-04T11:45:45.166Z,1011.35
2018-12-04T11:46:45.237Z,1011.36
2018-12-04T11:47:45.280Z,1011.58
2018-12-04T11:48:45.385Z,1011.37
2018-12-04T11:49:45.394Z,1011.33
2018-12-04T11:50:45.474Z,1011.35
2018-12-04T11:51:45.510Z,1011.42
2018-12-04T11:52:45.584Z,1011.36
2018-12-04T11:53:45.646Z,1011.44
2018-12-04T11:54:45.679Z,1011.44
2018-12-04T11:55:45.736Z,1011.50
2018-12-04T11:56:45.794Z,1011.50
2018-12-04T11:57:45.852Z,1011.46
2018-12-04T11:58:45.915Z,1011.49
2018-12-04T11:59:45.966Z,1011.47
2018-12-04T12:00:46.024Z,1011.51
2018-12-04T12:01:46.080Z,1011.48
2018-12-04T12:02:46.137Z,1011.52
2018-12-04T12:03:46.197Z,1011.53
2018-12-04T12:04:46.288Z,1011.54
2018-12-04T12:05:46.313Z,1011.54
2018-12-04T12:06:46.370Z,1011.57
2018-12-04T12:07:46.428Z,1011.56
2018-12-04T12:08:46.483Z,1011.51
2018-12-04T12:09:46.544Z,1011.52